createdAt,value
2022-11-28T00:01:35.846Z,100754.00
2022-11-28T00:03:07.884Z,100761.75
2022-11-28T00:04:40.587Z,100761.72
2022-11-28T00:06:12.750Z,100761.75
2022-11-28T00:07:44.900Z,100766.84
2022-11-28T00:09:17.846Z,100767.72
2022-11-28T00:10:49.872Z,100774.50
2022-11-28T00:12:21.903Z,100763.28
2022-11-28T00:13:54.387Z,100773.53
2022-11-28T00:15:28.638Z,100770.09
2022-11-28T00:17:00.722Z,100774.31
2022-11-28T00:18:32.658Z,100770.09
2022-11-28T00:20:04.752Z,100759.81
2022-11-28T00:21:36.675Z,100767.50
2022-11-28T00:23:08.505Z,100764.94
2022-11-28T00:24:40.916Z,100764.13
2022-11-28T00:26:17.797Z,100766.72
2022-11-28T00:27:49.648Z,100768.41
2022-11-28T00:29:21.608Z,100776.06
2022-11-28T00:30:53.500Z,100770.91
2022-11-28T00:32:25.336Z,100766.63
2022-11-28T00:33:57.272Z,100766.59
2022-11-28T00:35:29.286Z,100765.69
2022-11-28T00:37:01.089Z,100763.03
2022-11-28T00:38:33.172Z,100762.19
2022-11-28T00:40:05.274Z,100765.59
2022-11-28T00:41:37.229Z,100763.09
2022-11-28T00:43:09.161Z,100765.69
2022-11-28T00:44:41.273Z,100764.84
2022-11-28T00:46:13.924Z,100763.16
2022-11-28T00:47:47.053Z,100762.31
2022-11-28T00:49:18.897Z,100772.66
2022-11-28T00:50:50.808Z,100776.09
2022-11-28T00:52:22.761Z,100777.78
2022-11-28T00:53:55.750Z,100768.44
2022-11-28T00:55:27.593Z,100771.88
2022-11-28T00:56:59.471Z,100764.13
2022-11-28T00:58:31.977Z,100768.38
2022-11-28T01:00:04.874Z,100765.72
2022-11-28T01:01:40.950Z,100763.94
2022-11-28T01:03:12.846Z,100765.59
2022-11-28T01:04:44.721Z,100760.44
2022-11-28T01:06:26.990Z,100765.56
2022-11-28T01:07:58.934Z,100763.03
2022-11-28T01:09:30.873Z,100760.47
2022-11-28T01:11:02.749Z,100769.06
2022-11-28T01:12:34.630Z,100766.50
2022-11-28T01:14:06.976Z,100768.22
2022-11-28T01:15:40.408Z,100763.13
2022-11-28T01:17:12.252Z,100755.41
2022-11-28T01:18:44.086Z,100758.81
2022-11-28T01:20:16.054Z,100756.22
2022-11-28T01:21:50.348Z,100757.09
2022-11-28T01:25:04.565Z,100753.72
2022-11-28T01:26:38.275Z,100758.03
2022-11-28T01:28:10.084Z,100753.75
2022-11-28T01:29:41.982Z,100755.47
2022-11-28T01:31:15.277Z,100747.78
2022-11-28T01:32:47.130Z,100753.78
2022-11-28T01:34:19.485Z,100748.59
2022-11-28T01:35:55.144Z,100750.28
2022-11-28T01:37:28.899Z,100745.09
2022-11-28T01:39:00.965Z,100749.34
2022-11-28T01:40:33.006Z,100740.75
2022-11-28T01:42:05.042Z,100744.19
2022-11-28T01:43:37.140Z,100743.28
2022-11-28T01:45:15.203Z,100750.97
2022-11-28T01:46:47.146Z,100753.56
2022-11-28T01:48:21.409Z,100750.97
2022-11-28T01:49:53.223Z,100745.88
2022-11-28T01:51:25.075Z,100743.28
2022-11-28T01:52:58.279Z,100745.84
2022-11-28T01:54:30.093Z,100750.13
2022-11-28T01:56:28.091Z,100748.47
2022-11-28T01:58:12.462Z,100753.56
2022-11-28T02:00:03.152Z,100745.88
2022-11-28T02:01:34.954Z,100748.50
2022-11-28T02:03:13.917Z,100745.09
2022-11-28T02:04:46.108Z,100742.63
2022-11-28T02:06:18.796Z,100745.19
2022-11-28T02:07:50.806Z,100742.66
2022-11-28T02:09:22.964Z,100737.56
2022-11-28T02:11:04.047Z,100737.56
2022-11-28T02:12:41.742Z,100740.97
2022-11-28T02:14:22.050Z,100741.06
2022-11-28T02:16:09.390Z,100740.19
2022-11-28T02:17:56.267Z,100737.63
2022-11-28T02:19:43.445Z,100732.50
2022-11-28T02:21:17.489Z,100736.78
2022-11-28T02:22:49.292Z,100737.63
2022-11-28T02:24:36.215Z,100731.66
2022-11-28T02:26:40.556Z,100731.66
2022-11-28T02:28:13.593Z,100729.94
2022-11-28T02:30:00.383Z,100729.97
2022-11-28T02:31:33.922Z,100723.97
2022-11-28T02:33:08.786Z,100727.44
2022-11-28T02:34:46.832Z,100723.97
2022-11-28T02:36:21.860Z,100730.81
2022-11-28T02:37:56.745Z,100736.84
2022-11-28T02:39:40.957Z,100731.72
2022-11-28T02:41:21.517Z,100729.16
2022-11-28T02:43:08.439Z,100730.81
2022-11-28T02:44:44.862Z,100733.44
2022-11-28T02:46:17.755Z,100724.88
2022-11-28T02:47:51.106Z,100729.19
2022-11-28T02:49:24.345Z,100723.19
2022-11-28T02:50:59.218Z,100730.91
2022-11-28T02:52:39.092Z,100728.34
2022-11-28T02:54:11.889Z,100722.34
2022-11-28T02:55:43.951Z,100729.19
2022-11-28T02:57:15.777Z,100729.16
2022-11-28T02:58:47.747Z,100724.00
2022-11-28T03:00:22.684Z,100724.00
2022-11-28T03:01:54.604Z,100725.66
2022-11-28T03:03:29.216Z,100722.25
2022-11-28T03:05:15.443Z,100718.84
2022-11-28T03:06:50.148Z,100715.38
2022-11-28T03:08:25.039Z,100716.28
2022-11-28T03:10:17.136Z,100715.41
2022-11-28T03:11:54.733Z,100712.81
2022-11-28T03:15:00.568Z,100709.44
2022-11-28T03:16:52.667Z,100709.44
2022-11-28T03:18:25.455Z,100714.53
2022-11-28T03:20:02.606Z,100709.41
2022-11-28T03:21:52.713Z,100715.41
2022-11-28T03:23:27.524Z,100714.56
2022-11-28T03:25:08.620Z,100717.16
2022-11-28T03:27:00.798Z,100708.59
2022-11-28T03:28:39.382Z,100715.53
2022-11-28T03:30:17.283Z,100724.97
2022-11-28T03:31:51.471Z,100718.13
2022-11-28T03:33:23.863Z,100715.56
2022-11-28T03:34:57.555Z,100709.59
2022-11-28T03:36:30.829Z,100716.47
2022-11-28T03:38:04.657Z,100714.72
2022-11-28T03:39:37.781Z,100717.28
2022-11-28T03:41:15.316Z,100713.88
2022-11-28T03:42:51.248Z,100706.19
2022-11-28T03:44:33.375Z,100712.22
2022-11-28T03:46:06.774Z,100702.75
2022-11-28T03:47:44.046Z,100711.34
2022-11-28T03:49:16.805Z,100711.34
2022-11-28T03:50:54.004Z,100715.63
2022-11-28T03:52:27.282Z,100713.97
2022-11-28T03:53:59.280Z,100714.78
2022-11-28T03:55:33.795Z,100716.53
2022-11-28T03:57:17.038Z,100717.34
2022-11-28T03:59:09.298Z,100715.63
2022-11-28T04:00:52.795Z,100714.69
2022-11-28T04:02:24.914Z,100712.03
2022-11-28T04:04:25.908Z,100721.38
2022-11-28T04:06:02.599Z,100722.19
2022-11-28T04:07:42.851Z,100727.25
2022-11-28T04:09:15.882Z,100730.72
2022-11-28T04:10:53.808Z,100722.94
2022-11-28T04:12:40.607Z,100721.19
2022-11-28T04:14:32.345Z,100725.47
2022-11-28T04:16:05.746Z,100722.91
2022-11-28T04:17:48.878Z,100725.47
2022-11-28T04:19:24.342Z,100722.84
2022-11-28T04:21:16.818Z,100723.69
2022-11-28T04:22:50.020Z,100719.47
2022-11-28T04:24:23.365Z,100726.31
2022-11-28T04:25:59.581Z,100726.31
2022-11-28T04:27:32.758Z,100728.03
2022-11-28T04:29:05.860Z,100724.59
2022-11-28T04:30:37.727Z,100722.91
2022-11-28T04:32:09.593Z,100723.78
2022-11-28T04:33:42.511Z,100728.97
2022-11-28T04:35:20.914Z,100727.22
2022-11-28T04:36:52.862Z,100726.34
2022-11-28T04:38:25.077Z,100728.94
2022-11-28T04:39:56.924Z,100723.78
2022-11-28T04:41:47.315Z,100734.06
2022-11-28T04:43:24.181Z,100730.63
2022-11-28T04:45:01.779Z,100730.69
2022-11-28T04:46:36.113Z,100731.47
2022-11-28T04:48:08.003Z,100728.03
2022-11-28T04:49:39.903Z,100731.47
2022-11-28T04:51:14.603Z,100728.88
2022-11-28T04:52:52.698Z,100728.00
2022-11-28T04:54:27.427Z,100728.00
2022-11-28T04:56:01.938Z,100728.88
2022-11-28T04:57:35.675Z,100733.13
2022-11-28T04:59:07.845Z,100732.28
2022-11-28T05:00:39.881Z,100732.28
2022-11-28T05:02:11.983Z,100734.81
2022-11-28T05:03:44.072Z,100738.22
2022-11-28T05:05:18.084Z,100744.22
2022-11-28T05:06:50.573Z,100744.19
2022-11-28T05:08:22.631Z,100743.31
2022-11-28T05:09:55.981Z,100747.63
2022-11-28T05:11:31.650Z,100741.59
2022-11-28T05:13:03.800Z,100745.06
2022-11-28T05:14:35.848Z,100739.03
2022-11-28T05:16:07.793Z,100748.53
2022-11-28T05:17:42.391Z,100751.09
2022-11-28T05:19:14.606Z,100751.88
2022-11-28T05:20:46.509Z,100758.75
2022-11-28T05:22:18.339Z,100757.91
2022-11-28T05:23:50.276Z,100757.94
2022-11-28T05:25:22.254Z,100753.66
2022-11-28T05:26:54.328Z,100760.50
2022-11-28T05:28:26.259Z,100752.78
2022-11-28T05:29:58.203Z,100751.88
2022-11-28T05:31:30.305Z,100757.91
2022-11-28T05:33:02.469Z,100745.88
2022-11-28T05:34:34.406Z,100743.31
2022-11-28T05:36:13.089Z,100746.75
2022-11-28T05:37:45.509Z,100756.13
2022-11-28T05:39:17.372Z,100752.69
2022-11-28T05:40:49.351Z,100754.44
2022-11-28T05:42:21.409Z,100753.63
2022-11-28T05:43:53.868Z,100747.63
2022-11-28T05:45:25.775Z,100751.06
2022-11-28T05:46:57.661Z,100763.03
2022-11-28T05:48:29.586Z,100758.72
2022-11-28T05:50:01.543Z,100754.44
2022-11-28T05:51:33.398Z,100760.41
2022-11-28T05:53:05.228Z,100757.00
2022-11-28T05:54:37.109Z,100749.31
2022-11-28T05:57:40.682Z,100751.03
2022-11-28T05:59:13.081Z,100747.59
2022-11-28T06:00:45.008Z,100742.44
2022-11-28T06:02:17.132Z,100747.59
2022-11-28T06:03:49.168Z,100750.16
2022-11-28T06:05:41.477Z,100749.31
2022-11-28T06:07:13.258Z,100751.03
2022-11-28T06:08:45.559Z,100745.06
2022-11-28T06:10:17.809Z,100741.59
2022-11-28T06:11:49.939Z,100744.19
2022-11-28T06:13:21.858Z,100737.38
2022-11-28T06:14:53.834Z,100740.78
2022-11-28T06:16:26.954Z,100745.06
2022-11-28T06:18:01.865Z,100740.78
2022-11-28T06:19:33.890Z,100738.19
2022-11-28T06:21:06.102Z,100739.03
2022-11-28T06:22:38.120Z,100739.91
2022-11-28T06:24:10.329Z,100731.31
2022-11-28T06:25:44.546Z,100735.59
2022-11-28T06:27:16.610Z,100739.03
2022-11-28T06:28:48.633Z,100737.38
2022-11-28T06:30:20.765Z,100733.06
2022-11-28T06:31:52.746Z,100733.09
2022-11-28T06:33:24.728Z,100728.84
2022-11-28T06:34:56.743Z,100735.72
2022-11-28T06:36:28.750Z,100735.78
2022-11-28T06:38:00.787Z,100728.97
2022-11-28T06:39:33.045Z,100731.56
2022-11-28T06:41:06.448Z,100727.31
2022-11-28T06:42:38.759Z,100726.50
2022-11-28T06:44:12.837Z,100721.38
2022-11-28T06:45:44.771Z,100727.44
2022-11-28T06:47:16.648Z,100730.00
2022-11-28T06:48:49.220Z,100724.88
2022-11-28T06:50:21.088Z,100724.00
2022-11-28T06:51:52.953Z,100726.59
2022-11-28T06:53:28.666Z,100724.88
2022-11-28T06:55:09.645Z,100724.91
2022-11-28T06:56:41.931Z,100731.78
2022-11-28T06:58:13.830Z,100730.94
2022-11-28T06:59:45.679Z,100730.06
2022-11-28T07:01:19.005Z,100730.94
2022-11-28T07:02:51.125Z,100734.34
2022-11-28T07:04:23.067Z,100734.34
2022-11-28T07:05:54.922Z,100732.66
2022-11-28T07:07:26.829Z,100729.25
2022-11-28T07:08:59.065Z,100727.50
2022-11-28T07:10:31.458Z,100724.13
2022-11-28T07:12:03.515Z,100717.28
2022-11-28T07:13:35.508Z,100725.84
2022-11-28T07:15:08.252Z,100722.41
2022-11-28T07:16:40.244Z,100728.41
2022-11-28T07:18:12.193Z,100726.69
2022-11-28T07:19:44.411Z,100724.97
2022-11-28T07:21:16.820Z,100720.69
2022-11-28T07:22:49.117Z,100728.44
2022-11-28T07:24:21.029Z,100721.59
2022-11-28T07:25:58.022Z,100725.06
2022-11-28T07:27:30.086Z,100719.03
2022-11-28T07:29:02.452Z,100722.44
2022-11-28T07:30:34.769Z,100728.44
2022-11-28T07:32:08.278Z,100727.59
2022-11-28T07:33:40.875Z,100726.75
2022-11-28T07:35:12.860Z,100727.63
2022-11-28T07:36:44.870Z,100727.63
2022-11-28T07:38:16.950Z,100730.22
2022-11-28T07:39:48.844Z,100729.38
2022-11-28T07:41:25.968Z,100730.22
2022-11-28T07:42:58.709Z,100731.09
2022-11-28T07:44:31.213Z,100730.22
2022-11-28T07:46:13.787Z,100729.38
2022-11-28T07:47:45.751Z,100725.94
2022-11-28T07:49:17.742Z,100727.69
2022-11-28T07:50:49.712Z,100724.31
2022-11-28T07:52:21.757Z,100726.88
2022-11-28T07:53:53.848Z,100729.50
2022-11-28T07:55:26.025Z,100719.25
2022-11-28T07:57:12.636Z,100718.41
2022-11-28T07:58:46.068Z,100717.56
2022-11-28T08:00:18.585Z,100721.88
2022-11-28T08:26:05.622Z,100712.50
2022-11-28T08:27:38.009Z,100714.19
2022-11-28T08:29:10.146Z,100707.34
2022-11-28T08:30:45.174Z,100706.50
2022-11-28T08:32:17.502Z,100714.25
2022-11-28T08:33:49.896Z,100711.69
2022-11-28T08:35:22.132Z,100705.72
2022-11-28T08:36:54.061Z,100702.31
2022-11-28T08:38:25.959Z,100710.06
2022-11-28T08:39:58.312Z,100701.53
2022-11-28T08:41:30.457Z,100698.13
2022-11-28T08:43:02.433Z,100697.28
2022-11-28T08:44:34.339Z,100696.44
2022-11-28T08:46:06.706Z,100691.31
2022-11-28T08:47:38.783Z,100686.19
2022-11-28T08:49:11.048Z,100681.88
2022-11-28T08:50:49.253Z,100681.91
2022-11-28T08:52:22.938Z,100686.22
2022-11-28T08:54:00.731Z,100685.34
2022-11-28T08:55:34.657Z,100676.81
2022-11-28T08:57:08.705Z,100681.09
2022-11-28T08:58:40.938Z,100677.72
2022-11-28T09:00:13.501Z,100680.28
2022-11-28T09:01:45.691Z,100680.31
2022-11-28T09:03:18.412Z,100676.88
2022-11-28T09:04:50.726Z,100673.44
2022-11-28T09:06:23.260Z,100672.59
2022-11-28T09:07:55.964Z,100666.63
2022-11-28T09:09:32.727Z,100671.78
2022-11-28T09:11:06.940Z,100663.19
2022-11-28T09:12:38.948Z,100667.50
2022-11-28T09:14:10.993Z,100664.13
2022-11-28T09:15:43.624Z,100659.91
2022-11-28T09:17:18.335Z,100659.91
2022-11-28T09:18:51.506Z,100658.25
2022-11-28T09:20:23.569Z,100655.69
2022-11-28T09:21:57.902Z,100652.31
2022-11-28T09:23:30.325Z,100649.72
2022-11-28T09:25:02.410Z,100648.03
2022-11-28T09:26:34.696Z,100649.81
2022-11-28T09:28:07.174Z,100639.56
2022-11-28T09:29:39.452Z,100643.00
2022-11-28T09:31:12.910Z,100637.94
2022-11-28T09:32:47.501Z,100641.38
2022-11-28T09:34:19.432Z,100638.84
2022-11-28T09:35:51.641Z,100639.69
2022-11-28T09:37:23.875Z,100638.84
2022-11-28T09:38:55.841Z,100634.56
2022-11-28T09:40:30.908Z,100634.56
2022-11-28T09:42:03.093Z,100628.56
2022-11-28T09:43:43.099Z,100624.31
2022-11-28T09:45:15.105Z,100627.78
2022-11-28T09:46:47.474Z,100626.09
2022-11-28T09:48:22.338Z,100618.44
2022-11-28T09:50:04.905Z,100622.72
2022-11-28T09:51:49.685Z,100617.59
2022-11-28T09:53:27.570Z,100612.47
2022-11-28T09:55:05.854Z,100608.19
2022-11-28T09:56:38.007Z,100599.66
2022-11-28T09:58:27.426Z,100608.31
2022-11-28T09:59:59.639Z,100610.09
2022-11-28T10:01:34.912Z,100598.97
2022-11-28T10:03:16.294Z,100600.69
2022-11-28T10:05:09.171Z,100594.75
2022-11-28T10:07:01.692Z,100593.91
2022-11-28T10:08:45.764Z,100596.44
2022-11-28T10:10:31.420Z,100588.69
2022-11-28T10:12:18.282Z,100587.81
2022-11-28T10:14:10.182Z,100592.97
2022-11-28T10:15:54.091Z,100588.72
2022-11-28T10:17:30.579Z,100587.81
2022-11-28T10:19:04.113Z,100585.22
2022-11-28T10:20:43.409Z,100588.69
2022-11-28T10:22:17.313Z,100589.56
2022-11-28T10:25:21.759Z,100593.06
2022-11-28T10:26:54.938Z,100576.78
2022-11-28T10:28:27.592Z,100580.25
2022-11-28T10:30:05.060Z,100576.00
2022-11-28T10:31:37.814Z,100581.16
2022-11-28T10:33:24.739Z,100576.03
2022-11-28T10:34:59.034Z,100578.63
2022-11-28T10:36:35.272Z,100564.91
2022-11-28T10:38:11.031Z,100578.59
2022-11-28T10:39:44.690Z,100560.59
2022-11-28T10:41:33.673Z,100565.72
2022-11-28T10:43:11.624Z,100563.16
2022-11-28T10:44:56.101Z,100570.88
2022-11-28T10:46:34.117Z,100569.16
2022-11-28T10:48:38.373Z,100574.31
2022-11-28T10:50:05.737Z,100569.94
2022-11-28T10:51:50.541Z,100575.09
2022-11-28T10:54:55.133Z,100575.09
2022-11-28T10:56:36.237Z,100573.44
2022-11-28T10:58:19.874Z,100566.59
2022-11-28T10:59:51.829Z,100565.78
2022-11-28T11:01:23.895Z,100563.19
2022-11-28T11:02:56.734Z,100561.50
2022-11-28T11:04:29.192Z,100555.50
2022-11-28T11:06:01.119Z,100554.66
2022-11-28T11:07:33.800Z,100563.25
2022-11-28T11:09:05.875Z,100552.97
2022-11-28T11:10:56.726Z,100546.94
2022-11-28T11:12:30.911Z,100552.03
2022-11-28T11:14:09.395Z,100544.31
2022-11-28T11:15:43.849Z,100548.63
2022-11-28T11:17:38.223Z,100540.06
2022-11-28T11:19:10.845Z,100540.84
2022-11-28T11:20:42.847Z,100530.53
2022-11-28T11:22:19.853Z,100529.69
2022-11-28T11:24:10.578Z,100529.75
2022-11-28T11:25:55.773Z,100533.19
2022-11-28T11:27:27.903Z,100528.91
2022-11-28T11:29:00.435Z,100522.97
2022-11-28T11:30:33.997Z,100526.41
2022-11-28T11:32:06.821Z,100524.66
2022-11-28T11:33:38.947Z,100528.94
2022-11-28T11:35:16.586Z,100533.19
2022-11-28T11:36:48.856Z,100528.91
2022-11-28T11:38:21.149Z,100522.91
2022-11-28T11:39:53.697Z,100531.47
2022-11-28T11:41:31.693Z,100519.47
2022-11-28T11:43:03.979Z,100535.78
2022-11-28T11:44:36.134Z,100529.75
2022-11-28T11:46:10.082Z,100527.97
2022-11-28T11:47:43.003Z,100525.31
2022-11-28T11:49:28.095Z,100536.34
2022-11-28T11:51:00.198Z,100532.88
2022-11-28T11:52:32.237Z,100530.28
2022-11-28T11:54:07.557Z,100521.75
2022-11-28T11:55:49.745Z,100524.34
2022-11-28T11:57:37.409Z,100527.81
2022-11-28T11:59:29.917Z,100520.06
2022-11-28T12:01:02.031Z,100526.06
2022-11-28T12:02:38.816Z,100532.91
2022-11-28T12:04:43.238Z,100522.63
2022-11-28T12:06:27.382Z,100520.09
2022-11-28T12:08:03.074Z,100517.56
2022-11-28T12:09:37.149Z,100522.72
2022-11-28T12:11:09.503Z,100524.44
2022-11-28T12:12:42.468Z,100520.94
2022-11-28T12:14:27.495Z,100526.03
2022-11-28T12:16:02.069Z,100524.34
2022-11-28T12:17:58.571Z,100520.94
2022-11-28T12:19:44.370Z,100526.91
2022-11-28T12:21:34.821Z,100526.00
2022-11-28T12:23:07.076Z,100520.81
2022-11-28T12:24:51.554Z,100520.84
2022-11-28T12:26:32.466Z,100510.56
2022-11-28T12:28:20.253Z,100513.97
2022-11-28T12:29:57.123Z,100512.22
2022-11-28T12:31:39.893Z,100507.06
2022-11-28T12:33:17.924Z,100509.66
2022-11-28T12:35:09.358Z,100513.91
2022-11-28T12:36:44.483Z,100513.06
2022-11-28T12:38:16.541Z,100516.53
2022-11-28T12:40:07.497Z,100513.97
2022-11-28T12:41:51.086Z,100516.50
2022-11-28T12:43:28.754Z,100515.63
2022-11-28T12:45:09.962Z,100513.97
2022-11-28T12:47:02.127Z,100511.41
2022-11-28T12:48:34.191Z,100516.56
2022-11-28T12:50:25.460Z,100514.88
2022-11-28T12:52:00.864Z,100506.28
2022-11-28T12:53:44.822Z,100507.13
2022-11-28T12:55:35.862Z,100513.97
2022-11-28T12:57:11.509Z,100519.09
2022-11-28T12:58:56.428Z,100513.94
2022-11-28T13:00:28.713Z,100514.72
2022-11-28T13:02:21.189Z,100516.44
2022-11-28T13:03:53.645Z,100519.00
2022-11-28T13:05:37.950Z,100515.56
2022-11-28T13:08:47.987Z,100525.03
2022-11-28T13:10:29.982Z,100529.31
2022-11-28T13:12:05.719Z,100530.91
2022-11-28T13:13:57.018Z,100528.31
2022-11-28T13:15:37.610Z,100532.69
2022-11-28T13:17:19.826Z,100531.84
2022-11-28T13:18:57.835Z,100534.34
2022-11-28T13:20:29.826Z,100535.25
2022-11-28T13:22:23.969Z,100541.25
2022-11-28T13:24:14.456Z,100544.56
2022-11-28T13:25:46.858Z,100536.78
2022-11-28T13:27:38.207Z,100542.00
2022-11-28T13:29:26.717Z,100547.16
2022-11-28T13:31:06.214Z,100548.84
2022-11-28T13:32:38.450Z,100543.69
2022-11-28T13:34:13.723Z,100543.72
2022-11-28T13:35:45.922Z,100542.81
2022-11-28T13:39:55.962Z,100539.38
2022-11-28T13:42:14.388Z,100546.22
2022-11-28T13:43:54.670Z,100544.44
2022-11-28T13:45:34.290Z,100548.69
2022-11-28T13:47:28.239Z,100541.84
2022-11-28T13:49:15.214Z,100545.28
2022-11-28T13:51:20.698Z,100545.28
2022-11-28T13:53:06.913Z,100545.25
2022-11-28T13:54:42.111Z,100538.38
2022-11-28T13:56:25.491Z,100541.78
2022-11-28T13:57:57.853Z,100545.19
2022-11-28T13:59:30.690Z,100541.75
2022-11-28T14:01:02.941Z,100541.75
2022-11-28T14:02:36.471Z,100550.34
2022-11-28T14:04:09.952Z,100544.31
2022-11-28T14:05:42.129Z,100548.56
2022-11-28T14:07:17.011Z,100556.34
2022-11-28T14:08:50.233Z,100556.28
2022-11-28T14:10:51.463Z,100553.72
2022-11-28T14:12:29.645Z,100557.09
2022-11-28T14:14:04.177Z,100557.91
2022-11-28T14:15:55.089Z,100559.66
2022-11-28T14:17:45.839Z,100557.97
2022-11-28T14:19:36.821Z,100562.31
2022-11-28T14:21:19.571Z,100564.03
2022-11-28T14:22:56.553Z,100564.88
2022-11-28T14:24:36.931Z,100568.31
2022-11-28T14:26:32.641Z,100566.59
2022-11-28T14:28:06.616Z,100567.44
2022-11-28T14:29:39.424Z,100571.75
2022-11-28T14:31:14.475Z,100561.44
2022-11-28T14:32:46.462Z,100567.44
2022-11-28T14:34:39.437Z,100571.78
2022-11-28T14:36:25.497Z,100564.94
2022-11-28T14:37:58.052Z,100559.75
2022-11-28T14:39:34.267Z,100568.28
2022-11-28T14:41:06.947Z,100564.78
2022-11-28T14:44:46.851Z,100564.88
2022-11-28T14:46:20.977Z,100567.44
2022-11-28T14:48:11.230Z,100568.28
2022-11-28T14:49:43.393Z,100568.25
2022-11-28T14:51:15.684Z,100569.13
2022-11-28T14:52:48.458Z,100567.41
2022-11-28T14:54:26.606Z,100566.53
2022-11-28T14:56:09.782Z,100567.38
2022-11-28T14:57:53.693Z,100564.75
2022-11-28T14:59:30.024Z,100567.31
2022-11-28T15:01:03.614Z,100566.44
2022-11-28T15:02:49.049Z,100570.75
2022-11-28T15:04:28.702Z,100577.56
2022-11-28T15:07:46.296Z,100571.56
2022-11-28T15:09:20.485Z,100579.28
2022-11-28T15:10:55.696Z,100580.13
2022-11-28T15:12:48.232Z,100579.28
2022-11-28T15:14:21.644Z,100587.78
2022-11-28T15:15:53.835Z,100581.81
2022-11-28T15:17:31.235Z,100580.09
2022-11-28T15:19:26.833Z,100579.25
2022-11-28T15:21:01.979Z,100578.38
2022-11-28T15:22:34.174Z,100575.81
2022-11-28T15:24:15.456Z,100580.16
2022-11-28T15:25:51.052Z,100575.81
2022-11-28T15:27:26.970Z,100581.75
2022-11-28T15:29:08.892Z,100584.31
2022-11-28T15:30:47.673Z,100584.31
2022-11-28T15:32:19.737Z,100581.72
2022-11-28T15:33:51.852Z,100581.69
2022-11-28T15:35:24.208Z,100580.81
2022-11-28T15:36:57.143Z,100581.66
2022-11-28T15:38:29.974Z,100581.66
2022-11-28T15:40:02.563Z,100590.25
2022-11-28T15:41:34.531Z,100581.69
2022-11-28T15:43:12.637Z,100591.97
2022-11-28T15:44:45.598Z,100579.16
2022-11-28T15:46:18.939Z,100579.19
2022-11-28T15:47:51.711Z,100578.28
2022-11-28T15:49:24.707Z,100574.88
2022-11-28T15:50:56.764Z,100572.28
2022-11-28T15:52:28.837Z,100576.59
2022-11-28T15:54:00.912Z,100574.03
2022-11-28T15:55:33.533Z,100572.34
2022-11-28T15:57:06.062Z,100572.34
2022-11-28T15:58:38.181Z,100575.75
2022-11-28T16:00:14.053Z,100581.75
2022-11-28T16:01:46.427Z,100578.31
2022-11-28T16:03:19.435Z,100582.63
2022-11-28T16:04:52.250Z,100584.31
2022-11-28T16:06:25.118Z,100574.88
2022-11-28T16:07:57.142Z,100585.16
2022-11-28T16:09:35.335Z,100580.84
2022-11-28T16:11:08.098Z,100580.03
2022-11-28T16:12:41.158Z,100577.47
2022-11-28T16:14:16.936Z,100586.03
2022-11-28T16:15:50.278Z,100586.88
2022-11-28T16:17:29.793Z,100583.44
2022-11-28T16:19:02.776Z,100585.16
2022-11-28T16:20:35.332Z,100582.59
2022-11-28T16:22:10.740Z,100580.88
2022-11-28T16:23:42.938Z,100586.88
2022-11-28T16:25:24.938Z,100584.34
2022-11-28T16:27:00.252Z,100586.06
2022-11-28T16:28:36.267Z,100579.19
2022-11-28T16:30:23.411Z,100580.94
2022-11-28T16:31:55.422Z,100584.38
2022-11-28T16:33:40.844Z,100584.38
2022-11-28T16:35:13.085Z,100579.19
2022-11-28T16:36:46.192Z,100575.78
2022-11-28T16:38:24.434Z,100570.59
2022-11-28T16:40:14.564Z,100576.59
2022-11-28T16:41:46.482Z,100571.44
2022-11-28T16:43:30.892Z,100574.84
2022-11-28T16:45:16.782Z,100572.25
2022-11-28T16:46:52.663Z,100573.97
2022-11-28T16:48:27.578Z,100569.66
2022-11-28T16:50:04.883Z,100568.81
2022-11-28T16:51:43.080Z,100573.13
2022-11-28T16:53:34.958Z,100562.00
2022-11-28T16:55:26.823Z,100562.78
2022-11-28T16:57:09.399Z,100564.50
2022-11-28T16:58:41.292Z,100561.06
2022-11-28T17:00:13.739Z,100562.78
2022-11-28T17:01:50.913Z,100561.06
2022-11-28T17:03:43.988Z,100558.44
2022-11-28T17:05:16.508Z,100561.84
2022-11-28T17:06:48.908Z,100562.72
2022-11-28T17:08:23.875Z,100556.72
2022-11-28T17:09:59.657Z,100562.72
2022-11-28T17:11:33.194Z,100559.31
2022-11-28T17:13:05.396Z,100567.88
2022-11-28T17:14:39.537Z,100569.56
2022-11-28T17:16:18.760Z,100566.97
2022-11-28T17:17:50.937Z,100570.41
2022-11-28T17:19:22.996Z,100571.25
2022-11-28T17:20:55.039Z,100571.22
2022-11-28T17:22:37.479Z,100570.34
2022-11-28T17:24:16.961Z,100576.28
2022-11-28T17:25:48.841Z,100561.66
2022-11-28T17:27:21.017Z,100565.91
2022-11-28T17:28:53.079Z,100563.28
2022-11-28T17:30:25.201Z,100563.31
2022-11-28T17:31:59.374Z,100563.25
2022-11-28T17:33:31.721Z,100570.03
2022-11-28T17:35:04.695Z,100564.91
2022-11-28T17:36:36.758Z,100561.44
2022-11-28T17:38:09.024Z,100555.41
2022-11-28T17:40:00.889Z,100558.78
2022-11-28T17:41:33.427Z,100554.53
2022-11-28T17:43:05.714Z,100555.41
2022-11-28T17:44:39.478Z,100551.94
2022-11-28T17:46:11.727Z,100552.81
2022-11-28T17:47:43.675Z,100553.69
2022-11-28T17:49:16.010Z,100545.97
2022-11-28T17:50:48.997Z,100551.09
2022-11-28T17:52:21.477Z,100546.81
2022-11-28T17:53:53.555Z,100547.63
2022-11-28T17:55:25.423Z,100547.66
2022-11-28T17:56:57.647Z,100542.53
2022-11-28T17:58:29.830Z,100540.84
2022-11-28T18:00:01.978Z,100546.88
2022-11-28T18:01:33.888Z,100542.56
2022-11-28T18:03:05.995Z,100544.28
2022-11-28T18:04:37.946Z,100544.28
2022-11-28T18:06:17.703Z,100542.59
2022-11-28T18:07:50.039Z,100543.44
2022-11-28T18:09:22.067Z,100534.00
2022-11-28T18:11:04.718Z,100533.16
2022-11-28T18:12:37.476Z,100537.44
2022-11-28T18:14:09.426Z,100537.44
2022-11-28T18:15:43.064Z,100534.81
2022-11-28T18:17:15.170Z,100525.38
2022-11-28T18:18:47.457Z,100532.22
2022-11-28T18:20:20.338Z,100533.09
2022-11-28T18:21:52.301Z,100527.06
2022-11-28T18:23:24.163Z,100533.94
2022-11-28T18:24:56.085Z,100527.09
2022-11-28T18:26:28.114Z,100530.53
2022-11-28T18:28:00.168Z,100530.56
2022-11-28T18:29:32.123Z,100533.09
2022-11-28T18:31:14.150Z,100534.84
2022-11-28T18:32:46.432Z,100527.97
2022-11-28T18:34:18.608Z,100527.16
2022-11-28T18:35:50.525Z,100526.31
2022-11-28T18:37:22.524Z,100528.00
2022-11-28T18:38:55.322Z,100529.72
2022-11-28T18:40:27.199Z,100527.97
2022-11-28T18:42:00.361Z,100531.44
2022-11-28T18:43:32.695Z,100522.88
2022-11-28T18:45:04.784Z,100534.00
2022-11-28T18:46:36.712Z,100534.00
2022-11-28T18:49:40.576Z,100526.31
2022-11-28T18:51:12.879Z,100524.59
2022-11-28T18:52:45.325Z,100525.44
2022-11-28T18:54:21.169Z,100525.47
2022-11-28T18:56:03.298Z,100520.34
2022-11-28T18:57:35.701Z,100522.06
2022-11-28T18:59:07.979Z,100524.66